aviador You're here:

KWLD Decoded Metar

WINFIELD/ARKANSA in KS, USA
Report Time2017-06-27 04:54:00
UTC Time2017-06-27 05:11:11
Flight Rules vfr VFR
Wind090° at 05 kt
W.Decomp.*RWY 13: 3.5 kt HW 3.6 kt LCW
RWY 17: 0.3 kt HW 5 kt LCW
W.Rank090° ranks 18
Current wind is below 090° avg. (5.8)
Visibility9999 m
Phenomena:N/A
Clouds:N/A
Expected CloudBase > 400 ft AGL from Temp-Dew spread
CeilingNone
Temp19°C (ISA +6)
Dew Point18°C (94% RH)
QNH1019 hPa
Density Alt1,959 ft
Elevation1,148 ft
Report Wrong Elevation
Raw Report
KWLD 270454Z AUTO 09005KT 10SM CLR 19/18 A3008 RMK AO2 LTG DSNT SW
RAE00 SLP176 P0000 T01940183 $=

Extra information for KWLD:More info

Metar Taf Metar & Taf Last 4 Metars F.Rules Stats Wind Profile Meteogram Temp Stats Airport Information Weather charts Add Link Nearby VenuesMetar ALERT Operation Metar Decoded Social comments

AIRNAV info for KWLD